sensor_id;sensor_type;location;lat;lon;timestamp;P1;durP1;ratioP1;P2;durP2;ratioP2
64022;SDS011;50264;52.088;5.296;2023-03-01T00:01:10;8.9;;;7.7;;
64022;SDS011;50264;52.088;5.296;2023-03-01T00:02:49;11.9;;;8.4;;
64022;SDS011;50264;52.088;5.296;2023-03-01T00:04:25;11.7;;;8.2;;
64022;SDS011;50264;52.088;5.296;2023-03-01T00:07:40;8.31;;;7.4;;
64022;SDS011;50264;52.088;5.296;2023-03-01T00:09:16;8.4;;;7.6;;
64022;SDS011;50264;52.088;5.296;2023-03-01T00:11:01;8.71;;;7.8;;
64022;SDS011;50264;52.088;5.296;2023-03-01T00:12:39;11.4;;;8.2;;
64022;SDS011;50264;52.088;5.296;2023-03-01T00:15:51;13.9;;;8.81;;
64022;SDS011;50264;52.088;5.296;2023-03-01T00:17:28;10.7;;;8.71;;
64022;SDS011;50264;52.088;5.296;2023-03-01T00:19:04;13.5;;;9.0;;
64022;SDS011;50264;52.088;5.296;2023-03-01T00:22:17;11.3;;;8.9;;
64022;SDS011;50264;52.088;5.296;2023-03-01T00:23:53;9.5;;;8.5;;
64022;SDS011;50264;52.088;5.296;2023-03-01T00:25:30;10.5;;;8.31;;
64022;SDS011;50264;52.088;5.296;2023-03-01T00:28:43;11.0;;;9.4;;
64022;SDS011;50264;52.088;5.296;2023-03-01T00:30:20;12.3;;;8.71;;
64022;SDS011;50264;52.088;5.296;2023-03-01T00:31:56;12.1;;;9.21;;
64022;SDS011;50264;52.088;5.296;2023-03-01T00:33:32;9.81;;;8.31;;
64022;SDS011;50264;52.088;5.296;2023-03-01T00:36:45;13.0;;;9.5;;
64022;SDS011;50264;52.088;5.296;2023-03-01T00:38:22;11.8;;;9.1;;
64022;SDS011;50264;52.088;5.296;2023-03-01T00:39:58;17.11;;;8.71;;
64022;SDS011;50264;52.088;5.296;2023-03-01T00:43:10;11.0;;;8.9;;
64022;SDS011;50264;52.088;5.296;2023-03-01T00:44:46;11.1;;;9.21;;
64022;SDS011;50264;52.088;5.296;2023-03-01T00:46:23;13.1;;;8.1;;
64022;SDS011;50264;52.088;5.296;2023-03-01T00:49:38;9.5;;;8.5;;
64022;SDS011;50264;52.088;5.296;2023-03-01T00:51:14;10.9;;;9.0;;
64022;SDS011;50264;52.088;5.296;2023-03-01T00:52:53;11.8;;;9.5;;
64022;SDS011;50264;52.088;5.296;2023-03-01T00:54:30;13.5;;;10.21;;
64022;SDS011;50264;52.088;5.296;2023-03-01T00:57:45;12.7;;;9.9;;
64022;SDS011;50264;52.088;5.296;2023-03-01T00:59:21;11.5;;;9.1;;
64022;SDS011;50264;52.088;5.296;2023-03-01T01:00:58;12.8;;;9.71;;
64022;SDS011;50264;52.088;5.296;2023-03-01T01:04:12;12.4;;;10.8;;
64022;SDS011;50264;52.088;5.296;2023-03-01T01:05:49;11.4;;;10.1;;
64022;SDS011;50264;52.088;5.296;2023-03-01T01:07:25;11.2;;;9.9;;
64022;SDS011;50264;52.088;5.296;2023-03-01T01:09:02;11.7;;;9.9;;
64022;SDS011;50264;52.088;5.296;2023-03-01T01:12:20;11.7;;;9.9;;
64022;SDS011;50264;52.088;5.296;2023-03-01T01:13:56;10.9;;;9.71;;
64022;SDS011;50264;52.088;5.296;2023-03-01T01:15:33;11.4;;;10.0;;
64022;SDS011;50264;52.088;5.296;2023-03-01T01:18:46;16.0;;;10.3;;
64022;SDS011;50264;52.088;5.296;2023-03-01T01:20:22;17.2;;;10.6;;
64022;SDS011;50264;52.088;5.296;2023-03-01T01:21:58;13.0;;;10.7;;
64022;SDS011;50264;52.088;5.296;2023-03-01T01:25:11;12.1;;;9.9;;
64022;SDS011;50264;52.088;5.296;2023-03-01T01:26:48;13.2;;;10.6;;
64022;SDS011;50264;52.088;5.296;2023-03-01T01:28:25;12.3;;;10.21;;
64022;SDS011;50264;52.088;5.296;2023-03-01T01:30:01;16.7;;;11.2;;
64022;SDS011;50264;52.088;5.296;2023-03-01T01:33:17;12.5;;;10.21;;
64022;SDS011;50264;52.088;5.296;2023-03-01T01:34:53;15.4;;;11.1;;
64022;SDS011;50264;52.088;5.296;2023-03-01T01:36:30;11.3;;;10.1;;
64022;SDS011;50264;52.088;5.296;2023-03-01T01:39:45;14.1;;;10.8;;
64022;SDS011;50264;52.088;5.296;2023-03-01T01:41:21;15.2;;;11.1;;
64022;SDS011;50264;52.088;5.296;2023-03-01T01:42:59;15.3;;;11.7;;
64022;SDS011;50264;52.088;5.296;2023-03-01T01:44:35;12.5;;;10.6;;
64022;SDS011;50264;52.088;5.296;2023-03-01T01:47:57;12.2;;;10.9;;
64022;SDS011;50264;52.088;5.296;2023-03-01T01:49:40;15.2;;;12.0;;
64022;SDS011;50264;52.088;5.296;2023-03-01T01:51:22;14.0;;;11.5;;
64022;SDS011;50264;52.088;5.296;2023-03-01T01:53:01;18.11;;;11.5;;
64022;SDS011;50264;52.088;5.296;2023-03-01T01:56:21;12.7;;;10.7;;
64022;SDS011;50264;52.088;5.296;2023-03-01T01:58:02;12.0;;;10.8;;
64022;SDS011;50264;52.088;5.296;2023-03-01T01:59:43;12.6;;;10.1;;
64022;SDS011;50264;52.088;5.296;2023-03-01T02:01:25;15.5;;;12.1;;
64022;SDS011;50264;52.088;5.296;2023-03-01T02:04:44;15.7;;;12.1;;
64022;SDS011;50264;52.088;5.296;2023-03-01T02:06:24;14.1;;;11.1;;
64022;SDS011;50264;52.088;5.296;2023-03-01T02:08:05;13.1;;;10.9;;
64022;SDS011;50264;52.088;5.296;2023-03-01T02:09:45;16.11;;;11.4;;
64022;SDS011;50264;52.088;5.296;2023-03-01T02:13:03;13.6;;;12.3;;
64022;SDS011;50264;52.088;5.296;2023-03-01T02:14:40;17.91;;;12.9;;
64022;SDS011;50264;52.088;5.296;2023-03-01T02:16:16;15.6;;;12.9;;
64022;SDS011;50264;52.088;5.296;2023-03-01T02:19:35;14.0;;;11.9;;
64022;SDS011;50264;52.088;5.296;2023-03-01T02:21:37;17.0;;;12.6;;
64022;SDS011;50264;52.088;5.296;2023-03-01T02:23:24;12.9;;;11.5;;
64022;SDS011;50264;52.088;5.296;2023-03-01T02:25:03;12.9;;;11.5;;
64022;SDS011;50264;52.088;5.296;2023-03-01T02:26:51;16.3;;;12.7;;
64022;SDS011;50264;52.088;5.296;2023-03-01T02:28:31;14.7;;;12.6;;
64022;SDS011;50264;52.088;5.296;2023-03-01T02:31:46;20.2;;;13.0;;
64022;SDS011;50264;52.088;5.296;2023-03-01T02:33:23;14.2;;;12.4;;
64022;SDS011;50264;52.088;5.296;2023-03-01T02:35:01;17.11;;;13.1;;
64022;SDS011;50264;52.088;5.296;2023-03-01T02:38:18;16.11;;;12.8;;
64022;SDS011;50264;52.088;5.296;2023-03-01T02:39:56;16.8;;;13.3;;
64022;SDS011;50264;52.088;5.296;2023-03-01T02:41:37;17.91;;;12.8;;
64022;SDS011;50264;52.088;5.296;2023-03-01T02:43:17;17.0;;;14.3;;
64022;SDS011;50264;52.088;5.296;2023-03-01T02:46:41;17.0;;;13.4;;
64022;SDS011;50264;52.088;5.296;2023-03-01T02:48:18;18.5;;;13.7;;
64022;SDS011;50264;52.088;5.296;2023-03-01T02:49:55;18.2;;;14.2;;
64022;SDS011;50264;52.088;5.296;2023-03-01T02:51:34;18.11;;;14.9;;
64022;SDS011;50264;52.088;5.296;2023-03-01T02:55:10;16.11;;;13.2;;
64022;SDS011;50264;52.088;5.296;2023-03-01T02:56:49;17.41;;;13.9;;
64022;SDS011;50264;52.088;5.296;2023-03-01T02:58:27;19.61;;;14.4;;
64022;SDS011;50264;52.088;5.296;2023-03-01T03:00:04;16.4;;;13.6;;
64022;SDS011;50264;52.088;5.296;2023-03-01T03:03:20;21.1;;;13.9;;
64022;SDS011;50264;52.088;5.296;2023-03-01T03:04:57;21.3;;;14.2;;
64022;SDS011;50264;52.088;5.296;2023-03-01T03:06:33;19.3;;;13.7;;
64022;SDS011;50264;52.088;5.296;2023-03-01T03:09:46;15.9;;;14.2;;
64022;SDS011;50264;52.088;5.296;2023-03-01T03:11:22;16.4;;;14.6;;
64022;SDS011;50264;52.088;5.296;2023-03-01T03:12:59;16.8;;;14.2;;
64022;SDS011;50264;52.088;5.296;2023-03-01T03:14:37;16.8;;;14.3;;
64022;SDS011;50264;52.088;5.296;2023-03-01T03:17:50;19.61;;;14.5;;
64022;SDS011;50264;52.088;5.296;2023-03-01T03:19:28;22.9;;;15.8;;
64022;SDS011;50264;52.088;5.296;2023-03-01T03:21:06;17.91;;;15.0;;
64022;SDS011;50264;52.088;5.296;2023-03-01T03:24:19;18.61;;;15.0;;
64022;SDS011;50264;52.088;5.296;2023-03-01T03:25:55;16.61;;;14.8;;
64022;SDS011;50264;52.088;5.296;2023-03-01T03:27:31;15.9;;;13.8;;
64022;SDS011;50264;52.088;5.296;2023-03-01T03:30:44;15.4;;;13.7;;
64022;SDS011;50264;52.088;5.296;2023-03-01T03:32:20;18.0;;;14.8;;
64022;SDS011;50264;52.088;5.296;2023-03-01T03:33:56;18.5;;;14.5;;
64022;SDS011;50264;52.088;5.296;2023-03-01T03:35:33;19.41;;;14.9;;
64022;SDS011;50264;52.088;5.296;2023-03-01T03:38:52;20.6;;;16.0;;
64022;SDS011;50264;52.088;5.296;2023-03-01T03:40:29;20.2;;;15.6;;
64022;SDS011;50264;52.088;5.296;2023-03-01T03:42:08;20.3;;;15.2;;
64022;SDS011;50264;52.088;5.296;2023-03-01T03:45:20;19.91;;;15.0;;
64022;SDS011;50264;52.088;5.296;2023-03-01T03:46:56;18.11;;;13.6;;
64022;SDS011;50264;52.088;5.296;2023-03-01T03:48:32;19.61;;;13.3;;
64022;SDS011;50264;52.088;5.296;2023-03-01T03:50:10;17.3;;;13.1;;
64022;SDS011;50264;52.088;5.296;2023-03-01T03:53:24;18.0;;;13.3;;
64022;SDS011;50264;52.088;5.296;2023-03-01T03:55:03;15.4;;;12.7;;
64022;SDS011;50264;52.088;5.296;2023-03-01T03:56:40;21.4;;;15.3;;
64022;SDS011;50264;52.088;5.296;2023-03-01T03:59:54;22.3;;;14.4;;
64022;SDS011;50264;52.088;5.296;2023-03-01T04:01:30;19.2;;;15.4;;
64022;SDS011;50264;52.088;5.296;2023-03-01T04:03:06;17.41;;;15.3;;
64022;SDS011;50264;52.088;5.296;2023-03-01T04:04:45;19.11;;;14.7;;
64022;SDS011;50264;52.088;5.296;2023-03-01T04:07:58;18.2;;;15.9;;
64022;SDS011;50264;52.088;5.296;2023-03-01T04:09:35;19.8;;;15.7;;
64022;SDS011;50264;52.088;5.296;2023-03-01T04:11:11;18.91;;;15.8;;
64022;SDS011;50264;52.088;5.296;2023-03-01T04:14:24;17.2;;;15.4;;
64022;SDS011;50264;52.088;5.296;2023-03-01T04:16:00;18.91;;;16.0;;
64022;SDS011;50264;52.088;5.296;2023-03-01T04:17:37;21.6;;;16.7;;
64022;SDS011;50264;52.088;5.296;2023-03-01T04:20:49;23.9;;;17.5;;
64022;SDS011;50264;52.088;5.296;2023-03-01T04:22:26;26.6;;;17.41;;
64022;SDS011;50264;52.088;5.296;2023-03-01T04:24:02;20.7;;;17.2;;
64022;SDS011;50264;52.088;5.296;2023-03-01T04:25:40;21.7;;;18.0;;
64022;SDS011;50264;52.088;5.296;2023-03-01T04:28:54;21.9;;;17.91;;
64022;SDS011;50264;52.088;5.296;2023-03-01T04:30:30;25.8;;;18.2;;
64022;SDS011;50264;52.088;5.296;2023-03-01T04:35:20;25.5;;;18.0;;
64022;SDS011;50264;52.088;5.296;2023-03-01T04:36:56;22.3;;;16.4;;
64022;SDS011;50264;52.088;5.296;2023-03-01T04:38:32;21.4;;;16.7;;
64022;SDS011;50264;52.088;5.296;2023-03-01T04:41:46;23.3;;;17.8;;
64022;SDS011;50264;52.088;5.296;2023-03-01T04:43:23;22.0;;;16.8;;
64022;SDS011;50264;52.088;5.296;2023-03-01T04:44:59;23.0;;;18.2;;
64022;SDS011;50264;52.088;5.296;2023-03-01T04:46:35;26.1;;;19.41;;
64022;SDS011;50264;52.088;5.296;2023-03-01T04:49:48;21.4;;;16.9;;
64022;SDS011;50264;52.088;5.296;2023-03-01T04:51:25;20.8;;;18.5;;
64022;SDS011;50264;52.088;5.296;2023-03-01T04:53:01;22.8;;;17.3;;
64022;SDS011;50264;52.088;5.296;2023-03-01T04:56:14;23.0;;;17.5;;
64022;SDS011;50264;52.088;5.296;2023-03-01T04:57:52;24.2;;;18.11;;
64022;SDS011;50264;52.088;5.296;2023-03-01T04:59:29;21.9;;;18.3;;
64022;SDS011;50264;52.088;5.296;2023-03-01T05:02:47;22.9;;;19.11;;
64022;SDS011;50264;52.088;5.296;2023-03-01T05:04:24;24.3;;;18.5;;
64022;SDS011;50264;52.088;5.296;2023-03-01T05:06:00;21.1;;;18.11;;
64022;SDS011;50264;52.088;5.296;2023-03-01T05:07:36;23.0;;;17.8;;
64022;SDS011;50264;52.088;5.296;2023-03-01T05:10:49;23.4;;;19.3;;
64022;SDS011;50264;52.088;5.296;2023-03-01T05:12:28;24.3;;;18.41;;
64022;SDS011;50264;52.088;5.296;2023-03-01T05:14:04;19.8;;;16.7;;
64022;SDS011;50264;52.088;5.296;2023-03-01T05:17:18;28.1;;;18.5;;
64022;SDS011;50264;52.088;5.296;2023-03-01T05:18:54;24.2;;;19.5;;
64022;SDS011;50264;52.088;5.296;2023-03-01T05:20:30;21.3;;;17.61;;
64022;SDS011;50264;52.088;5.296;2023-03-01T05:23:43;24.1;;;18.0;;
64022;SDS011;50264;52.088;5.296;2023-03-01T05:25:20;22.9;;;17.61;;
64022;SDS011;50264;52.088;5.296;2023-03-01T05:26:57;21.0;;;17.3;;
64022;SDS011;50264;52.088;5.296;2023-03-01T05:28:34;20.11;;;17.3;;
64022;SDS011;50264;52.088;5.296;2023-03-01T05:31:48;20.5;;;17.11;;
64022;SDS011;50264;52.088;5.296;2023-03-01T05:33:25;29.1;;;18.91;;
64022;SDS011;50264;52.088;5.296;2023-03-01T05:35:03;24.8;;;18.61;;
64022;SDS011;50264;52.088;5.296;2023-03-01T05:38:16;25.7;;;18.2;;
64022;SDS011;50264;52.088;5.296;2023-03-01T05:39:52;23.5;;;19.7;;
64022;SDS011;50264;52.088;5.296;2023-03-01T05:41:28;24.3;;;18.61;;
64022;SDS011;50264;52.088;5.296;2023-03-01T05:43:04;20.9;;;18.11;;
64022;SDS011;50264;52.088;5.296;2023-03-01T05:46:18;22.3;;;17.5;;
64022;SDS011;50264;52.088;5.296;2023-03-01T05:47:54;20.9;;;18.0;;
64022;SDS011;50264;52.088;5.296;2023-03-01T05:49:31;26.6;;;18.5;;
64022;SDS011;50264;52.088;5.296;2023-03-01T05:52:43;25.6;;;19.11;;
64022;SDS011;50264;52.088;5.296;2023-03-01T05:54:21;24.7;;;19.0;;
64022;SDS011;50264;52.088;5.296;2023-03-01T05:55:58;27.6;;;19.11;;
64022;SDS011;50264;52.088;5.296;2023-03-01T06:00:47;25.4;;;18.61;;
64022;SDS011;50264;52.088;5.296;2023-03-01T06:02:24;22.9;;;19.61;;
64022;SDS011;50264;52.088;5.296;2023-03-01T06:04:00;22.2;;;18.41;;
64022;SDS011;50264;52.088;5.296;2023-03-01T06:07:14;26.6;;;19.8;;
64022;SDS011;50264;52.088;5.296;2023-03-01T06:08:51;25.8;;;20.5;;
64022;SDS011;50264;52.088;5.296;2023-03-01T06:10:28;25.7;;;20.41;;
64022;SDS011;50264;52.088;5.296;2023-03-01T06:13:42;25.4;;;19.11;;
64022;SDS011;50264;52.088;5.296;2023-03-01T06:15:19;23.6;;;19.7;;
64022;SDS011;50264;52.088;5.296;2023-03-01T06:16:57;30.0;;;22.0;;
64022;SDS011;50264;52.088;5.296;2023-03-01T06:20:12;25.4;;;20.8;;
64022;SDS011;50264;52.088;5.296;2023-03-01T06:21:50;34.4;;;21.1;;
64022;SDS011;50264;52.088;5.296;2023-03-01T06:23:26;25.2;;;20.6;;
64022;SDS011;50264;52.088;5.296;2023-03-01T06:25:03;27.3;;;21.0;;
64022;SDS011;50264;52.088;5.296;2023-03-01T06:28:16;26.0;;;20.6;;
64022;SDS011;50264;52.088;5.296;2023-03-01T06:29:52;26.2;;;19.91;;
64022;SDS011;50264;52.088;5.296;2023-03-01T06:31:29;23.0;;;19.11;;
64022;SDS011;50264;52.088;5.296;2023-03-01T06:34:41;25.0;;;19.2;;
64022;SDS011;50264;52.088;5.296;2023-03-01T06:36:17;25.9;;;19.7;;
64022;SDS011;50264;52.088;5.296;2023-03-01T06:37:53;25.9;;;20.3;;
64022;SDS011;50264;52.088;5.296;2023-03-01T06:41:06;26.8;;;20.5;;
64022;SDS011;50264;52.088;5.296;2023-03-01T06:42:44;22.6;;;20.2;;
64022;SDS011;50264;52.088;5.296;2023-03-01T06:44:25;26.1;;;20.7;;
64022;SDS011;50264;52.088;5.296;2023-03-01T06:46:03;28.6;;;20.5;;
64022;SDS011;50264;52.088;5.296;2023-03-01T06:49:16;27.2;;;21.4;;
64022;SDS011;50264;52.088;5.296;2023-03-01T06:50:52;23.3;;;20.7;;
64022;SDS011;50264;52.088;5.296;2023-03-01T06:52:30;26.7;;;21.2;;
64022;SDS011;50264;52.088;5.296;2023-03-01T06:55:43;25.5;;;21.1;;
64022;SDS011;50264;52.088;5.296;2023-03-01T06:57:19;30.0;;;21.0;;
64022;SDS011;50264;52.088;5.296;2023-03-01T06:58:55;29.0;;;21.3;;
64022;SDS011;50264;52.088;5.296;2023-03-01T07:00:31;23.8;;;20.3;;
64022;SDS011;50264;52.088;5.296;2023-03-01T07:03:46;25.3;;;21.5;;
64022;SDS011;50264;52.088;5.296;2023-03-01T07:05:23;26.5;;;20.5;;
64022;SDS011;50264;52.088;5.296;2023-03-01T07:06:59;23.3;;;19.7;;
64022;SDS011;50264;52.088;5.296;2023-03-01T07:10:11;29.5;;;22.9;;
64022;SDS011;50264;52.088;5.296;2023-03-01T07:11:48;27.0;;;22.5;;
64022;SDS011;50264;52.088;5.296;2023-03-01T07:13:25;30.5;;;21.5;;
64022;SDS011;50264;52.088;5.296;2023-03-01T07:16:40;29.9;;;22.1;;
64022;SDS011;50264;52.088;5.296;2023-03-01T07:18:16;27.8;;;22.0;;
64022;SDS011;50264;52.088;5.296;2023-03-01T07:19:52;29.6;;;22.2;;
64022;SDS011;50264;52.088;5.296;2023-03-01T07:21:29;27.7;;;23.5;;
64022;SDS011;50264;52.088;5.296;2023-03-01T07:24:43;30.7;;;23.7;;
64022;SDS011;50264;52.088;5.296;2023-03-01T07:26:19;27.8;;;22.8;;
64022;SDS011;50264;52.088;5.296;2023-03-01T07:27:55;30.7;;;23.6;;
64022;SDS011;50264;52.088;5.296;2023-03-01T07:31:07;28.1;;;22.1;;
64022;SDS011;50264;52.088;5.296;2023-03-01T07:32:43;26.0;;;22.7;;
64022;SDS011;50264;52.088;5.296;2023-03-01T07:34:20;26.0;;;21.6;;
64022;SDS011;50264;52.088;5.296;2023-03-01T07:37:33;30.5;;;22.7;;
64022;SDS011;50264;52.088;5.296;2023-03-01T07:39:09;32.0;;;22.1;;
64022;SDS011;50264;52.088;5.296;2023-03-01T07:40:46;28.7;;;22.0;;
64022;SDS011;50264;52.088;5.296;2023-03-01T07:42:22;29.5;;;21.9;;
64022;SDS011;50264;52.088;5.296;2023-03-01T07:45:35;29.1;;;22.0;;
64022;SDS011;50264;52.088;5.296;2023-03-01T07:47:11;29.7;;;23.8;;
64022;SDS011;50264;52.088;5.296;2023-03-01T07:48:47;29.9;;;23.2;;
64022;SDS011;50264;52.088;5.296;2023-03-01T07:51:59;31.2;;;24.4;;
64022;SDS011;50264;52.088;5.296;2023-03-01T07:53:35;28.0;;;22.8;;
64022;SDS011;50264;52.088;5.296;2023-03-01T07:55:13;26.3;;;22.3;;
64022;SDS011;50264;52.088;5.296;2023-03-01T07:58:26;32.4;;;22.8;;
64022;SDS011;50264;52.088;5.296;2023-03-01T08:00:03;27.2;;;21.8;;
64022;SDS011;50264;52.088;5.296;2023-03-01T08:01:40;28.9;;;23.3;;
64022;SDS011;50264;52.088;5.296;2023-03-01T08:03:16;29.7;;;23.7;;
64022;SDS011;50264;52.088;5.296;2023-03-01T08:06:29;31.2;;;23.8;;
64022;SDS011;50264;52.088;5.296;2023-03-01T08:08:05;31.5;;;24.2;;
64022;SDS011;50264;52.088;5.296;2023-03-01T08:09:41;27.9;;;23.0;;
64022;SDS011;50264;52.088;5.296;2023-03-01T08:12:54;27.1;;;22.6;;
64022;SDS011;50264;52.088;5.296;2023-03-01T08:14:30;27.1;;;22.6;;
64022;SDS011;50264;52.088;5.296;2023-03-01T08:16:07;30.8;;;24.8;;
64022;SDS011;50264;52.088;5.296;2023-03-01T08:19:25;27.2;;;23.0;;
64022;SDS011;50264;52.088;5.296;2023-03-01T08:21:02;28.9;;;24.0;;
64022;SDS011;50264;52.088;5.296;2023-03-01T08:22:40;28.2;;;23.5;;
64022;SDS011;50264;52.088;5.296;2023-03-01T08:24:16;28.1;;;21.3;;
64022;SDS011;50264;52.088;5.296;2023-03-01T08:27:28;26.3;;;21.3;;
64022;SDS011;50264;52.088;5.296;2023-03-01T08:29:04;30.1;;;22.9;;
64022;SDS011;50264;52.088;5.296;2023-03-01T08:30:40;28.6;;;23.1;;
64022;SDS011;50264;52.088;5.296;2023-03-01T08:33:53;28.6;;;23.7;;
64022;SDS011;50264;52.088;5.296;2023-03-01T08:35:33;28.6;;;22.3;;
64022;SDS011;50264;52.088;5.296;2023-03-01T08:37:09;27.5;;;22.2;;
64022;SDS011;50264;52.088;5.296;2023-03-01T08:40:21;27.3;;;23.8;;
64022;SDS011;50264;52.088;5.296;2023-03-01T08:41:58;31.3;;;23.8;;
64022;SDS011;50264;52.088;5.296;2023-03-01T08:43:34;32.8;;;23.1;;
64022;SDS011;50264;52.088;5.296;2023-03-01T08:45:10;22.6;;;19.91;;
64022;SDS011;50264;52.088;5.296;2023-03-01T08:48:23;18.7;;;16.8;;
64022;SDS011;50264;52.088;5.296;2023-03-01T08:50:00;20.9;;;16.5;;
64022;SDS011;50264;52.088;5.296;2023-03-01T08:51:38;21.9;;;18.0;;
64022;SDS011;50264;52.088;5.296;2023-03-01T08:54:51;19.11;;;17.0;;
64022;SDS011;50264;52.088;5.296;2023-03-01T08:56:27;17.91;;;16.0;;
64022;SDS011;50264;52.088;5.296;2023-03-01T08:58:03;17.41;;;15.5;;
64022;SDS011;50264;52.088;5.296;2023-03-01T09:01:16;19.91;;;15.8;;
64022;SDS011;50264;52.088;5.296;2023-03-01T09:02:55;14.7;;;13.1;;
64022;SDS011;50264;52.088;5.296;2023-03-01T09:04:31;16.3;;;13.2;;
64022;SDS011;50264;52.088;5.296;2023-03-01T09:06:07;14.8;;;11.3;;
64022;SDS011;50264;52.088;5.296;2023-03-01T09:09:20;11.9;;;10.7;;
64022;SDS011;50264;52.088;5.296;2023-03-01T09:10:56;12.5;;;11.2;;
64022;SDS011;50264;52.088;5.296;2023-03-01T09:12:32;9.31;;;7.8;;
64022;SDS011;50264;52.088;5.296;2023-03-01T09:15:45;12.8;;;11.0;;
64022;SDS011;50264;52.088;5.296;2023-03-01T09:17:21;15.8;;;10.8;;
64022;SDS011;50264;52.088;5.296;2023-03-01T09:18:57;12.9;;;11.3;;
64022;SDS011;50264;52.088;5.296;2023-03-01T09:22:09;14.8;;;10.1;;
64022;SDS011;50264;52.088;5.296;2023-03-01T09:23:46;13.7;;;9.71;;
64022;SDS011;50264;52.088;5.296;2023-03-01T09:25:24;13.7;;;9.71;;
64022;SDS011;50264;52.088;5.296;2023-03-01T09:27:00;11.0;;;8.71;;
64022;SDS011;50264;52.088;5.296;2023-03-01T09:30:13;9.5;;;8.5;;
64022;SDS011;50264;52.088;5.296;2023-03-01T09:31:49;8.81;;;7.9;;
64022;SDS011;50264;52.088;5.296;2023-03-01T09:33:26;12.2;;;7.2;;
64022;SDS011;50264;52.088;5.296;2023-03-01T09:36:40;7.7;;;6.1;;
64022;SDS011;50264;52.088;5.296;2023-03-01T09:38:16;7.9;;;5.0;;
64022;SDS011;50264;52.088;5.296;2023-03-01T09:39:52;11.1;;;5.6;;
64022;SDS011;50264;52.088;5.296;2023-03-01T09:43:34;7.6;;;5.6;;
64022;SDS011;50264;52.088;5.296;2023-03-01T09:45:26;6.8;;;4.7;;
64022;SDS011;50264;52.088;5.296;2023-03-01T09:47:09;10.4;;;6.1;;
64022;SDS011;50264;52.088;5.296;2023-03-01T09:48:55;7.1;;;5.3;;
64022;SDS011;50264;52.088;5.296;2023-03-01T09:50:38;8.71;;;5.2;;
64022;SDS011;50264;52.088;5.296;2023-03-01T09:52:19;11.4;;;5.6;;
64022;SDS011;50264;52.088;5.296;2023-03-01T09:55:43;10.6;;;6.3;;
64022;SDS011;50264;52.088;5.296;2023-03-01T09:57:25;10.5;;;5.8;;
64022;SDS011;50264;52.088;5.296;2023-03-01T09:59:09;10.1;;;5.4;;
64022;SDS011;50264;52.088;5.296;2023-03-01T10:00:59;12.1;;;6.6;;
64022;SDS011;50264;52.088;5.296;2023-03-01T10:02:46;8.9;;;5.5;;
64022;SDS011;50264;52.088;5.296;2023-03-01T10:06:18;9.71;;;5.3;;
64022;SDS011;50264;52.088;5.296;2023-03-01T10:08:00;16.2;;;9.71;;
64022;SDS011;50264;52.088;5.296;2023-03-01T10:10:01;8.5;;;6.0;;
64022;SDS011;50264;52.088;5.296;2023-03-01T10:11:41;8.1;;;4.8;;
64022;SDS011;50264;52.088;5.296;2023-03-01T10:13:21;11.5;;;4.7;;
64022;SDS011;50264;52.088;5.296;2023-03-01T10:15:04;7.9;;;4.91;;
64022;SDS011;50264;52.088;5.296;2023-03-01T10:18:29;7.3;;;5.5;;
64022;SDS011;50264;52.088;5.296;2023-03-01T10:20:19;5.9;;;4.7;;
64022;SDS011;50264;52.088;5.296;2023-03-01T10:22:00;8.31;;;5.11;;
64022;SDS011;50264;52.088;5.296;2023-03-01T10:23:45;11.1;;;5.2;;
64022;SDS011;50264;52.088;5.296;2023-03-01T10:27:22;7.1;;;4.7;;
64022;SDS011;50264;52.088;5.296;2023-03-01T10:29:01;7.0;;;4.61;;
64022;SDS011;50264;52.088;5.296;2023-03-01T10:30:40;5.7;;;4.7;;
64022;SDS011;50264;52.088;5.296;2023-03-01T10:32:17;5.3;;;4.61;;
64022;SDS011;50264;52.088;5.296;2023-03-01T10:33:54;10.0;;;4.91;;
64022;SDS011;50264;52.088;5.296;2023-03-01T10:37:10;10.4;;;4.91;;
64022;SDS011;50264;52.088;5.296;2023-03-01T10:38:49;5.5;;;3.9;;
64022;SDS011;50264;52.088;5.296;2023-03-01T10:43:55;4.41;;;3.9;;
64022;SDS011;50264;52.088;5.296;2023-03-01T10:45:33;6.0;;;3.9;;
64022;SDS011;50264;52.088;5.296;2023-03-01T10:47:13;9.71;;;5.0;;
64022;SDS011;50264;52.088;5.296;2023-03-01T10:49:25;7.3;;;4.61;;
64022;SDS011;50264;52.088;5.296;2023-03-01T10:51:05;7.8;;;5.0;;
64022;SDS011;50264;52.088;5.296;2023-03-01T10:52:42;6.6;;;4.61;;
64022;SDS011;50264;52.088;5.296;2023-03-01T10:56:10;13.0;;;5.11;;
64022;SDS011;50264;52.088;5.296;2023-03-01T10:57:48;5.0;;;4.1;;
64022;SDS011;50264;52.088;5.296;2023-03-01T10:59:26;6.5;;;5.0;;
64022;SDS011;50264;52.088;5.296;2023-03-01T11:01:23;10.3;;;5.11;;
64022;SDS011;50264;52.088;5.296;2023-03-01T11:04:56;6.3;;;4.7;;
64022;SDS011;50264;52.088;5.296;2023-03-01T11:06:57;7.8;;;4.8;;
64022;SDS011;50264;52.088;5.296;2023-03-01T11:08:37;10.5;;;4.91;;
64022;SDS011;50264;52.088;5.296;2023-03-01T11:10:18;8.81;;;4.3;;
64022;SDS011;50264;52.088;5.296;2023-03-01T11:11:59;7.5;;;4.91;;
64022;SDS011;50264;52.088;5.296;2023-03-01T11:13:36;5.5;;;4.1;;
64022;SDS011;50264;52.088;5.296;2023-03-01T11:17:04;5.11;;;4.1;;
64022;SDS011;50264;52.088;5.296;2023-03-01T11:18:55;3.9;;;3.5;;
64022;SDS011;50264;52.088;5.296;2023-03-01T11:20:33;10.8;;;4.7;;
64022;SDS011;50264;52.088;5.296;2023-03-01T11:22:12;6.2;;;4.3;;
64022;SDS011;50264;52.088;5.296;2023-03-01T11:25:30;5.5;;;3.8;;
64022;SDS011;50264;52.088;5.296;2023-03-01T11:27:15;7.4;;;3.9;;
64022;SDS011;50264;52.088;5.296;2023-03-01T11:29:00;8.2;;;3.9;;
64022;SDS011;50264;52.088;5.296;2023-03-01T11:30:43;4.2;;;3.3;;
64022;SDS011;50264;52.088;5.296;2023-03-01T11:32:28;5.6;;;3.7;;
64022;SDS011;50264;52.088;5.296;2023-03-01T11:36:26;5.0;;;3.1;;
64022;SDS011;50264;52.088;5.296;2023-03-01T11:38:12;7.7;;;4.2;;
64022;SDS011;50264;52.088;5.296;2023-03-01T11:39:58;5.2;;;3.9;;
64022;SDS011;50264;52.088;5.296;2023-03-01T11:41:42;7.4;;;3.9;;
64022;SDS011;50264;52.088;5.296;2023-03-01T11:43:26;6.6;;;3.4;;
64022;SDS011;50264;52.088;5.296;2023-03-01T11:45:10;6.0;;;3.9;;
64022;SDS011;50264;52.088;5.296;2023-03-01T11:49:16;5.7;;;3.8;;
64022;SDS011;50264;52.088;5.296;2023-03-01T11:52:17;7.1;;;4.1;;
64022;SDS011;50264;52.088;5.296;2023-03-01T11:54:13;6.0;;;3.8;;
64022;SDS011;50264;52.088;5.296;2023-03-01T11:56:03;5.9;;;3.8;;
64022;SDS011;50264;52.088;5.296;2023-03-01T11:57:57;5.8;;;3.5;;
64022;SDS011;50264;52.088;5.296;2023-03-01T12:00:02;5.8;;;3.7;;
64022;SDS011;50264;52.088;5.296;2023-03-01T12:02:02;5.3;;;3.3;;
64022;SDS011;50264;52.088;5.296;2023-03-01T12:05:03;4.61;;;3.3;;
64022;SDS011;50264;52.088;5.296;2023-03-01T12:07:56;6.7;;;3.5;;
64022;SDS011;50264;52.088;5.296;2023-03-01T12:09:47;4.0;;;3.3;;
64022;SDS011;50264;52.088;5.296;2023-03-01T12:11:39;7.3;;;3.5;;
64022;SDS011;50264;52.088;5.296;2023-03-01T12:13:42;5.11;;;3.5;;
64022;SDS011;50264;52.088;5.296;2023-03-01T12:15:50;4.41;;;3.7;;
64022;SDS011;50264;52.088;5.296;2023-03-01T12:17:53;4.61;;;3.2;;
64022;SDS011;50264;52.088;5.296;2023-03-01T12:19:54;7.1;;;3.7;;
64022;SDS011;50264;52.088;5.296;2023-03-01T12:21:54;5.8;;;3.4;;
64022;SDS011;50264;52.088;5.296;2023-03-01T12:24:10;5.4;;;3.7;;
64022;SDS011;50264;52.088;5.296;2023-03-01T12:26:57;7.4;;;3.9;;
64022;SDS011;50264;52.088;5.296;2023-03-01T12:31:04;6.0;;;4.0;;
64022;SDS011;50264;52.088;5.296;2023-03-01T12:33:50;8.2;;;4.2;;
64022;SDS011;50264;52.088;5.296;2023-03-01T12:35:36;9.81;;;5.11;;
64022;SDS011;50264;52.088;5.296;2023-03-01T12:37:29;4.7;;;3.8;;
64022;SDS011;50264;52.088;5.296;2023-03-01T12:41:21;5.8;;;4.0;;
64022;SDS011;50264;52.088;5.296;2023-03-01T12:43:47;5.9;;;4.0;;
64022;SDS011;50264;52.088;5.296;2023-03-01T12:47:34;6.6;;;4.61;;
64022;SDS011;50264;52.088;5.296;2023-03-01T12:49:32;5.3;;;4.1;;
64022;SDS011;50264;52.088;5.296;2023-03-01T12:51:15;5.4;;;4.41;;
64022;SDS011;50264;52.088;5.296;2023-03-01T12:52:57;6.4;;;4.1;;
64022;SDS011;50264;52.088;5.296;2023-03-01T12:54:34;5.0;;;3.5;;